Time;durP1;ratioP1;P1;durP2;ratioP2;P2;SDS_P1;SDS_P2;PMS_P1;PMS_P2;Temp;Humidity;BMP_temperature;BMP_pressure;BME280_temperature;BME280_humidity;BME280_pressure;Samples;Min_cycle;Max_cycle;Signal;HPM_P1;HPM_P2
2021/10/11 00:01:39;;;;;;;10.57;2.57;;;;;;;;;;5057109;28;20234;-75
2021/10/11 00:04:05;;;;;;;8.20;2.70;;;;;;;;;;5054800;28;20222;-75
2021/10/11 00:06:32;;;;;;;8.03;2.13;;;;;;;;;;5057259;28;20264;-75
2021/10/11 00:08:58;;;;;;;10.73;3.17;;;;;;;;;;5057622;28;20280;-74
2021/10/11 00:11:25;;;;;;;15.10;3.40;;;;;;;;;;5056924;28;20218;-74
2021/10/11 00:13:54;;;;;;;8.03;3.43;;;;;;;;;;5056439;28;21158;-74
2021/10/11 00:17:14;;;;;;;13.77;3.33;;;;;;;;;;5055851;28;20214;-74
2021/10/11 00:20:33;;;;;;;11.73;3.00;;;;;;;;;;5056323;28;20253;-71
2021/10/11 00:23:52;;;;;;;8.60;2.77;;;;;;;;;;5054986;28;20234;-71
2021/10/11 00:27:11;;;;;;;9.73;2.53;;;;;;;;;;5054752;28;20272;-72
2021/10/11 00:30:30;;;;;;;10.00;2.80;;;;;;;;;;5057403;28;20587;-72
2021/10/11 00:33:50;;;;;;;8.80;2.60;;;;;;;;;;5057236;28;20256;-72
2021/10/11 00:37:09;;;;;;;9.63;2.40;;;;;;;;;;5054929;28;20811;-72
2021/10/11 00:40:28;;;;;;;7.47;1.97;;;;;;;;;;5057725;28;20725;-70
2021/10/11 00:43:47;;;;;;;8.40;2.50;;;;;;;;;;5053654;28;20250;-71
2021/10/11 00:47:06;;;;;;;7.80;2.40;;;;;;;;;;5054298;28;20243;-70
2021/10/11 00:50:27;;;;;;;9.70;2.47;;;;;;;;;;5053208;28;20252;-71
2021/10/11 00:53:46;;;;;;;9.03;2.43;;;;;;;;;;5056269;28;20218;-71
2021/10/11 00:57:05;;;;;;;9.53;2.37;;;;;;;;;;5055391;28;20632;-71
2021/10/11 01:00:24;;;;;;;12.87;2.43;;;;;;;;;;5053281;28;20211;-71
2021/10/11 01:03:43;;;;;;;5.23;1.67;;;;;;;;;;5055153;28;20234;-71
2021/10/11 01:07:04;;;;;;;11.07;2.67;;;;;;;;;;5054536;28;20238;-72
2021/10/11 01:10:22;;;;;;;11.10;2.00;;;;;;;;;;5057061;28;20791;-71
2021/10/11 01:13:41;;;;;;;10.33;1.63;;;;;;;;;;5055576;28;20302;-71
2021/10/11 01:17:00;;;;;;;10.40;1.93;;;;;;;;;;5054672;28;20210;-71
2021/10/11 01:20:20;;;;;;;11.47;1.97;;;;;;;;;;5053449;28;21265;-71
2021/10/11 01:23:39;;;;;;;11.83;2.20;;;;;;;;;;5056112;28;20241;-71
2021/10/11 01:27:00;;;;;;;8.90;1.90;;;;;;;;;;5054963;28;20248;-71
2021/10/11 01:30:19;;;;;;;8.67;2.43;;;;;;;;;;5054005;28;20211;-72
2021/10/11 01:33:39;;;;;;;9.63;1.67;;;;;;;;;;5054688;28;20221;-71
2021/10/11 01:36:59;;;;;;;14.53;2.60;;;;;;;;;;5053851;28;20307;-71
2021/10/11 01:40:20;;;;;;;13.20;1.87;;;;;;;;;;5053967;28;20939;-71
2021/10/11 01:43:39;;;;;;;10.00;1.80;;;;;;;;;;5055118;28;20279;-71
2021/10/11 01:46:58;;;;;;;8.57;2.10;;;;;;;;;;5054464;28;20624;-71
2021/10/11 01:50:17;;;;;;;9.37;2.03;;;;;;;;;;5053732;28;20211;-71
2021/10/11 01:53:37;;;;;;;11.03;2.30;;;;;;;;;;5054484;28;20268;-72
2021/10/11 01:56:56;;;;;;;12.50;2.20;;;;;;;;;;5054767;28;20214;-72
2021/10/11 02:00:15;;;;;;;14.23;3.07;;;;;;;;;;5053098;28;20202;-71
2021/10/11 02:03:34;;;;;;;7.50;1.47;;;;;;;;;;5057791;28;20619;-72
2021/10/11 02:06:53;;;;;;;10.03;2.47;;;;;;;;;;5058722;28;20288;-72
2021/10/11 02:10:13;;;;;;;8.77;1.97;;;;;;;;;;5056004;28;20271;-72
2021/10/11 02:13:32;;;;;;;12.87;2.47;;;;;;;;;;5056876;28;20238;-71
2021/10/11 02:16:51;;;;;;;13.10;2.60;;;;;;;;;;5058343;28;20247;-72
2021/10/11 02:20:11;;;;;;;14.10;2.40;;;;;;;;;;5058669;28;21059;-72
2021/10/11 02:23:30;;;;;;;10.10;2.23;;;;;;;;;;5058554;28;20275;-71
2021/10/11 02:26:50;;;;;;;10.03;2.50;;;;;;;;;;5058319;28;20290;-72
2021/10/11 02:30:10;;;;;;;10.70;1.97;;;;;;;;;;5057756;28;20216;-71
2021/10/11 02:33:29;;;;;;;11.77;2.83;;;;;;;;;;5058909;28;20213;-71
2021/10/11 02:36:48;;;;;;;7.57;2.07;;;;;;;;;;5059014;28;20240;-71
2021/10/11 02:40:07;;;;;;;9.37;2.33;;;;;;;;;;5056449;28;20209;-71
2021/10/11 02:43:27;;;;;;;10.93;2.10;;;;;;;;;;5058557;28;20822;-71
2021/10/11 02:46:46;;;;;;;11.33;2.40;;;;;;;;;;5055022;28;20251;-71
2021/10/11 02:50:06;;;;;;;11.60;2.60;;;;;;;;;;5057204;28;20782;-71
2021/10/11 02:53:25;;;;;;;10.00;2.20;;;;;;;;;;5058276;28;20239;-72
2021/10/11 02:56:44;;;;;;;7.33;2.43;;;;;;;;;;5058987;28;20241;-72
2021/10/11 03:00:06;;;;;;;16.10;2.43;;;;;;;;;;5056828;28;20215;-72
2021/10/11 03:03:25;;;;;;;11.87;2.03;;;;;;;;;;5057756;28;20617;-72
2021/10/11 03:06:44;;;;;;;13.10;2.77;;;;;;;;;;5056802;28;20634;-72
2021/10/11 03:10:03;;;;;;;8.90;2.17;;;;;;;;;;5057206;28;20218;-72
2021/10/11 03:13:22;;;;;;;14.00;2.70;;;;;;;;;;5057498;28;20241;-71
2021/10/11 03:16:42;;;;;;;9.20;2.40;;;;;;;;;;5058604;28;20287;-72
2021/10/11 03:20:01;;;;;;;8.87;2.67;;;;;;;;;;5058182;28;20209;-72
2021/10/11 03:23:20;;;;;;;9.40;2.50;;;;;;;;;;5054893;28;20619;-72
2021/10/11 03:26:39;;;;;;;10.57;2.40;;;;;;;;;;5055975;28;20255;-72
2021/10/11 03:29:58;;;;;;;14.13;2.70;;;;;;;;;;5057863;28;20680;-71
2021/10/11 03:33:18;;;;;;;5.50;1.90;;;;;;;;;;5057188;28;20212;-71
2021/10/11 03:36:37;;;;;;;8.90;2.70;;;;;;;;;;5058071;28;20228;-71
2021/10/11 03:39:56;;;;;;;13.40;2.00;;;;;;;;;;5057003;28;20623;-72
2021/10/11 03:43:15;;;;;;;7.97;2.83;;;;;;;;;;5055591;28;20237;-72
2021/10/11 03:46:34;;;;;;;9.27;2.00;;;;;;;;;;5057197;28;20229;-72
2021/10/11 03:49:55;;;;;;;9.70;2.23;;;;;;;;;;5056904;28;20216;-72
2021/10/11 03:53:14;;;;;;;6.60;1.83;;;;;;;;;;5054783;28;20216;-72
2021/10/11 03:56:33;;;;;;;10.70;2.00;;;;;;;;;;5056685;28;20266;-72
2021/10/11 03:59:52;;;;;;;10.43;2.23;;;;;;;;;;5055873;28;20236;-72
2021/10/11 04:03:11;;;;;;;9.30;2.00;;;;;;;;;;5056814;28;20738;-72
2021/10/11 04:06:32;;;;;;;7.07;1.73;;;;;;;;;;5056052;28;20244;-72
2021/10/11 04:09:51;;;;;;;11.67;2.30;;;;;;;;;;5056454;28;20299;-72
2021/10/11 04:13:10;;;;;;;10.07;2.17;;;;;;;;;;5056118;28;20252;-72
2021/10/11 04:16:29;;;;;;;11.10;2.10;;;;;;;;;;5055609;28;20222;-72
2021/10/11 04:19:47;;;;;;;13.23;2.30;;;;;;;;;;5056333;28;20217;-72
2021/10/11 04:23:08;;;;;;;8.10;2.27;;;;;;;;;;5057365;28;20209;-72
2021/10/11 04:26:27;;;;;;;8.67;2.00;;;;;;;;;;5056734;28;20270;-72
2021/10/11 04:29:46;;;;;;;11.00;2.10;;;;;;;;;;5054460;28;20648;-72
2021/10/11 04:33:05;;;;;;;12.53;3.37;;;;;;;;;;5056720;28;20221;-72
2021/10/11 04:36:25;;;;;;;10.80;3.07;;;;;;;;;;5054819;28;20229;-72
2021/10/11 04:39:46;;;;;;;9.10;2.33;;;;;;;;;;5056579;28;20212;-72
2021/10/11 04:43:05;;;;;;;7.97;2.30;;;;;;;;;;5054953;28;20235;-72
2021/10/11 04:46:24;;;;;;;11.37;2.23;;;;;;;;;;5054805;28;20241;-72
2021/10/11 04:49:43;;;;;;;13.27;2.80;;;;;;;;;;5055849;28;20282;-72
2021/10/11 04:53:02;;;;;;;9.67;2.23;;;;;;;;;;5057159;28;20263;-72
2021/10/11 04:56:23;;;;;;;7.40;2.10;;;;;;;;;;5055133;28;20213;-72
2021/10/11 04:59:42;;;;;;;10.20;2.67;;;;;;;;;;5055209;28;20205;-72
2021/10/11 05:03:00;;;;;;;11.38;2.70;;;;;;;;;;5054717;28;20426;-70
2021/10/11 05:06:19;;;;;;;11.03;2.30;;;;;;;;;;5055897;28;20321;-70
2021/10/11 05:09:38;;;;;;;7.10;2.00;;;;;;;;;;5055590;28;20208;-70
2021/10/11 05:12:59;;;;;;;10.53;2.47;;;;;;;;;;5055293;28;20242;-70
2021/10/11 05:16:18;;;;;;;5.70;1.47;;;;;;;;;;5054043;28;20601;-70
2021/10/11 05:19:37;;;;;;;7.23;1.97;;;;;;;;;;5054242;28;20275;-70
2021/10/11 05:22:56;;;;;;;8.23;2.10;;;;;;;;;;5054135;28;20276;-70
2021/10/11 05:26:15;;;;;;;8.17;1.97;;;;;;;;;;5054171;28;20606;-70
2021/10/11 05:29:37;;;;;;;11.10;2.43;;;;;;;;;;5054922;28;20240;-70
2021/10/11 05:32:57;;;;;;;6.50;2.30;;;;;;;;;;5055534;28;20660;-70
2021/10/11 05:36:16;;;;;;;8.80;1.57;;;;;;;;;;5053021;28;20697;-70
2021/10/11 05:39:35;;;;;;;10.87;2.03;;;;;;;;;;5055665;28;20251;-70
2021/10/11 05:42:54;;;;;;;8.17;1.87;;;;;;;;;;5055435;28;20258;-70
2021/10/11 05:46:14;;;;;;;7.60;1.77;;;;;;;;;;5056084;28;20238;-70
2021/10/11 05:49:33;;;;;;;6.93;2.00;;;;;;;;;;5054439;28;21048;-70
2021/10/11 05:52:52;;;;;;;11.47;2.17;;;;;;;;;;5051610;28;20209;-70
2021/10/11 05:56:11;;;;;;;10.57;1.83;;;;;;;;;;5053826;28;20618;-70
2021/10/11 05:59:30;;;;;;;5.87;2.20;;;;;;;;;;5052973;28;20218;-70
2021/10/11 06:02:50;;;;;;;6.70;2.23;;;;;;;;;;5054321;28;20213;-70
2021/10/11 06:06:09;;;;;;;11.57;2.23;;;;;;;;;;5053590;28;20506;-70
2021/10/11 06:09:28;;;;;;;6.90;2.27;;;;;;;;;;5051389;28;20205;-70
2021/10/11 06:12:47;;;;;;;8.73;2.07;;;;;;;;;;5051828;28;20245;-70
2021/10/11 06:16:06;;;;;;;9.20;2.80;;;;;;;;;;5049631;28;20256;-70
2021/10/11 06:19:26;;;;;;;13.97;2.93;;;;;;;;;;5050784;28;20605;-70
2021/10/11 06:22:45;;;;;;;7.80;2.13;;;;;;;;;;5050485;28;20226;-70
2021/10/11 06:26:04;;;;;;;9.60;2.40;;;;;;;;;;5050512;28;20212;-70
2021/10/11 06:29:23;;;;;;;9.57;2.07;;;;;;;;;;5052168;28;20815;-70
2021/10/11 06:32:42;;;;;;;8.57;2.10;;;;;;;;;;5053609;28;20278;-70
2021/10/11 06:36:02;;;;;;;10.77;2.40;;;;;;;;;;5051105;28;20286;-70
2021/10/11 06:39:21;;;;;;;12.00;2.37;;;;;;;;;;5052164;28;20252;-70
2021/10/11 06:42:40;;;;;;;10.77;2.73;;;;;;;;;;5052123;28;20739;-70
2021/10/11 06:45:59;;;;;;;9.37;2.13;;;;;;;;;;5049843;28;20217;-71
2021/10/11 06:49:18;;;;;;;12.00;2.90;;;;;;;;;;5055355;28;20213;-70
2021/10/11 06:52:38;;;;;;;9.77;2.40;;;;;;;;;;5055228;28;20222;-70
2021/10/11 06:55:58;;;;;;;9.37;1.80;;;;;;;;;;5055457;28;20198;-70
2021/10/11 06:59:17;;;;;;;8.30;2.20;;;;;;;;;;5053977;28;20323;-70
2021/10/11 07:02:36;;;;;;;8.57;2.50;;;;;;;;;;5056695;28;20195;-70
2021/10/11 07:05:58;;;;;;;11.10;3.00;;;;;;;;;;5056028;28;20256;-70
2021/10/11 07:09:18;;;;;;;9.30;2.67;;;;;;;;;;5053494;28;20225;-70
2021/10/11 07:12:37;;;;;;;8.80;1.90;;;;;;;;;;5054338;28;20235;-70
2021/10/11 07:15:58;;;;;;;8.07;2.33;;;;;;;;;;5054808;28;20339;-70
2021/10/11 07:19:16;;;;;;;11.23;2.07;;;;;;;;;;5054313;28;20289;-72
2021/10/11 07:22:36;;;;;;;9.73;2.60;;;;;;;;;;5055958;28;20517;-70
2021/10/11 07:25:57;;;;;;;6.97;2.60;;;;;;;;;;5057083;28;20205;-70
2021/10/11 07:29:17;;;;;;;11.60;2.17;;;;;;;;;;5055543;28;20272;-70
2021/10/11 07:32:36;;;;;;;9.70;2.67;;;;;;;;;;5055998;28;20267;-71
2021/10/11 07:35:55;;;;;;;6.53;2.13;;;;;;;;;;5056572;28;20219;-70
2021/10/11 07:39:15;;;;;;;12.13;2.23;;;;;;;;;;5054590;28;20214;-70
2021/10/11 07:42:35;;;;;;;9.87;2.40;;;;;;;;;;5054324;28;20218;-70
2021/10/11 07:46:01;;;;;;;5.10;1.70;;;;;;;;;;5054394;28;20829;-70
2021/10/11 07:49:20;;;;;;;10.30;2.37;;;;;;;;;;5053954;28;20603;-71
2021/10/11 07:52:39;;;;;;;8.00;2.13;;;;;;;;;;5053739;28;20693;-70
2021/10/11 07:55:58;;;;;;;9.43;2.27;;;;;;;;;;5051498;28;20279;-70
2021/10/11 07:58:57;;;;;;;9.37;2.00;;;;;;;;;;5050561;28;20261;-70
2021/10/11 08:02:15;;;;;;;12.70;2.33;;;;;;;;;;5053292;28;20722;-71
2021/10/11 08:05:34;;;;;;;9.67;2.37;;;;;;;;;;5053813;28;20234;-70
2021/10/11 08:08:53;;;;;;;8.23;2.43;;;;;;;;;;5052790;28;20279;-71
2021/10/11 08:12:10;;;;;;;7.50;1.90;;;;;;;;;;5054398;28;20604;-73
2021/10/11 08:15:31;;;;;;;10.23;2.20;;;;;;;;;;5054851;28;20723;-71
2021/10/11 08:18:49;;;;;;;6.00;2.30;;;;;;;;;;5054135;28;20269;-71
2021/10/11 08:22:08;;;;;;;7.40;2.00;;;;;;;;;;5052627;28;20572;-71
2021/10/11 08:25:27;;;;;;;7.97;2.10;;;;;;;;;;5053436;28;20214;-69
2021/10/11 08:28:47;;;;;;;12.00;2.73;;;;;;;;;;5053312;28;20258;-71
2021/10/11 08:31:15;;;;;;;10.13;2.50;;;;;;;;;;5034295;28;20206;-73
2021/10/11 08:34:02;;;;;;;7.97;2.47;;;;;;;;;;5044017;28;20206;-73
2021/10/11 08:37:21;;;;;;;9.33;1.77;;;;;;;;;;5054475;28;20225;-70
2021/10/11 08:39:48;;;;;;;12.67;2.20;;;;;;;;;;5054000;28;20341;-71
2021/10/11 08:43:07;;;;;;;10.93;2.40;;;;;;;;;;5052316;28;20226;-71
2021/10/11 08:46:28;;;;;;;10.87;2.50;;;;;;;;;;5053037;28;20209;-71
2021/10/11 08:49:48;;;;;;;10.97;1.97;;;;;;;;;;5054685;28;20220;-71
2021/10/11 08:52:21;;;;;;;10.87;2.33;;;;;;;;;;5048956;28;20217;-71
2021/10/11 08:55:41;;;;;;;10.27;2.53;;;;;;;;;;5050204;28;20295;-70
2021/10/11 08:58:42;;;;;;;10.53;2.20;;;;;;;;;;5047083;28;20222;-71
2021/10/11 09:02:02;;;;;;;8.23;2.00;;;;;;;;;;5048445;28;20256;-72
2021/10/11 09:05:22;;;;;;;8.53;2.03;;;;;;;;;;5050477;28;20625;-71
2021/10/11 09:08:50;;;;;;;11.37;2.33;;;;;;;;;;5049680;28;21158;-71
2021/10/11 09:12:15;;;;;;;6.80;1.73;;;;;;;;;;5050772;28;20210;-71
2021/10/11 09:15:12;;;;;;;8.13;1.70;;;;;;;;;;5051891;28;20202;-71
2021/10/11 09:17:46;;;;;;;6.47;1.30;;;;;;;;;;5050713;28;20271;-71
2021/10/11 09:20:14;;;;;;;6.10;1.80;;;;;;;;;;5050697;28;20317;-71
2021/10/11 09:22:43;;;;;;;5.60;1.60;;;;;;;;;;5048799;28;20252;-71
2021/10/11 09:25:11;;;;;;;7.80;1.70;;;;;;;;;;5048438;28;20219;-70
2021/10/11 09:27:49;;;;;;;8.60;1.83;;;;;;;;;;5048622;28;20238;-70
2021/10/11 09:30:17;;;;;;;6.80;1.67;;;;;;;;;;5050023;28;20282;-71
2021/10/11 09:32:45;;;;;;;8.33;1.50;;;;;;;;;;5049264;28;20214;-70
2021/10/11 09:35:16;;;;;;;7.87;1.37;;;;;;;;;;5047310;28;20234;-70
2021/10/11 09:38:36;;;;;;;8.67;2.13;;;;;;;;;;5049343;28;20245;-70
2021/10/11 09:41:16;;;;;;;5.70;1.30;;;;;;;;;;5049573;28;20214;-70
2021/10/11 09:43:42;;;;;;;8.37;1.60;;;;;;;;;;5049725;28;20409;-70
2021/10/11 09:46:14;;;;;;;10.57;1.73;;;;;;;;;;5048910;28;20567;-70
2021/10/11 09:48:51;;;;;;;9.83;1.97;;;;;;;;;;5049090;28;20300;-70
2021/10/11 09:51:20;;;;;;;5.00;1.30;;;;;;;;;;5048979;28;20255;-70
2021/10/11 09:53:47;;;;;;;6.37;1.43;;;;;;;;;;5048806;28;20226;-70
2021/10/11 09:56:14;;;;;;;8.67;1.60;;;;;;;;;;5049300;28;20729;-71
2021/10/11 09:59:09;;;;;;;7.50;1.57;;;;;;;;;;5046307;28;20232;-70
2021/10/11 10:01:41;;;;;;;6.27;1.50;;;;;;;;;;5048901;28;20259;-70
2021/10/11 10:04:55;;;;;;;8.40;2.00;;;;;;;;;;5048693;28;20237;-70
2021/10/11 10:08:16;;;;;;;4.87;1.57;;;;;;;;;;5047797;28;20232;-70
2021/10/11 10:11:35;;;;;;;5.97;1.63;;;;;;;;;;5048659;28;20225;-70
2021/10/11 10:14:58;;;;;;;6.93;1.57;;;;;;;;;;5049284;28;20782;-71
2021/10/11 10:18:21;;;;;;;7.70;1.60;;;;;;;;;;5048533;28;20213;-71
2021/10/11 10:21:45;;;;;;;8.43;1.40;;;;;;;;;;5049634;28;21046;-70
2021/10/11 10:25:14;;;;;;;7.33;1.40;;;;;;;;;;5053772;28;20198;-70
2021/10/11 10:28:43;;;;;;;8.60;1.60;;;;;;;;;;5052955;28;20286;-71
2021/10/11 10:32:06;;;;;;;9.50;1.43;;;;;;;;;;5052140;28;20213;-70
2021/10/11 10:35:25;;;;;;;7.20;1.50;;;;;;;;;;5053126;28;20217;-70
2021/10/11 10:38:56;;;;;;;5.87;1.60;;;;;;;;;;5053991;28;20228;-72
2021/10/11 10:42:21;;;;;;;9.37;1.60;;;;;;;;;;5050885;28;21181;-71
2021/10/11 10:45:40;;;;;;;6.80;1.27;;;;;;;;;;5054601;28;20747;-71
2021/10/11 10:49:09;;;;;;;7.90;1.67;;;;;;;;;;5047685;28;20229;-71
2021/10/11 10:52:31;;;;;;;8.60;1.30;;;;;;;;;;5052892;28;20348;-70
2021/10/11 10:55:51;;;;;;;5.47;1.33;;;;;;;;;;5054193;28;20269;-70
2021/10/11 10:59:11;;;;;;;6.40;1.40;;;;;;;;;;5050599;28;20292;-71
2021/10/11 11:02:30;;;;;;;5.20;1.17;;;;;;;;;;5051134;28;20297;-70
2021/10/11 11:05:51;;;;;;;6.73;1.23;;;;;;;;;;5051129;28;20226;-71
2021/10/11 11:09:16;;;;;;;9.40;1.50;;;;;;;;;;5052555;28;20232;-74
2021/10/11 11:12:41;;;;;;;6.87;0.90;;;;;;;;;;5051575;28;21329;-70
2021/10/11 11:15:30;;;;;;;4.37;1.00;;;;;;;;;;5051263;28;20727;-70
2021/10/11 11:18:53;;;;;;;6.57;1.73;;;;;;;;;;5051246;28;20794;-70
2021/10/11 11:22:13;;;;;;;4.60;1.10;;;;;;;;;;5050982;28;20231;-70
2021/10/11 11:25:32;;;;;;;7.23;1.00;;;;;;;;;;5052596;28;20315;-70
2021/10/11 11:28:54;;;;;;;6.17;1.43;;;;;;;;;;5050811;28;20229;-70
2021/10/11 11:32:14;;;;;;;6.47;1.10;;;;;;;;;;5051503;28;20539;-71
2021/10/11 11:35:34;;;;;;;6.17;1.27;;;;;;;;;;5050873;28;20215;-70
2021/10/11 11:38:53;;;;;;;5.57;1.57;;;;;;;;;;5050344;28;20215;-71
2021/10/11 11:42:12;;;;;;;5.00;1.40;;;;;;;;;;5051938;28;20638;-70
2021/10/11 11:45:37;;;;;;;8.40;1.40;;;;;;;;;;5052610;28;20212;-70
2021/10/11 11:48:57;;;;;;;6.30;1.40;;;;;;;;;;5052446;28;20210;-70
2021/10/11 11:52:16;;;;;;;6.97;1.33;;;;;;;;;;5051050;28;20227;-70
2021/10/11 11:55:46;;;;;;;6.80;1.47;;;;;;;;;;5051483;28;20215;-70
2021/10/11 11:59:08;;;;;;;7.17;1.60;;;;;;;;;;5049463;28;20227;-70
2021/10/11 12:02:28;;;;;;;6.07;1.73;;;;;;;;;;5049062;28;20272;-70
2021/10/11 12:05:48;;;;;;;7.40;1.73;;;;;;;;;;5053828;28;20307;-70
2021/10/11 12:09:08;;;;;;;5.33;1.60;;;;;;;;;;5052713;28;20212;-70
2021/10/11 12:12:32;;;;;;;9.23;1.70;;;;;;;;;;5051336;28;20200;-70
2021/10/11 12:15:58;;;;;;;8.10;2.00;;;;;;;;;;5054464;28;20203;-70
2021/10/11 12:19:27;;;;;;;8.10;1.17;;;;;;;;;;5054034;28;20207;-70
2021/10/11 12:22:53;;;;;;;10.03;1.90;;;;;;;;;;5051402;28;20210;-70
2021/10/11 12:26:12;;;;;;;6.60;1.23;;;;;;;;;;5053796;28;20206;-70
2021/10/11 12:29:48;;;;;;;6.37;1.40;;;;;;;;;;5052935;28;20288;-70
2021/10/11 12:33:13;;;;;;;7.27;1.53;;;;;;;;;;5053643;28;20259;-69
2021/10/11 12:36:34;;;;;;;9.47;1.87;;;;;;;;;;5052951;28;21302;-69
2021/10/11 12:40:00;;;;;;;7.20;1.50;;;;;;;;;;5054562;28;20689;-70
2021/10/11 12:43:20;;;;;;;12.13;1.60;;;;;;;;;;5052596;28;20223;-70
2021/10/11 12:46:43;;;;;;;5.57;1.03;;;;;;;;;;5053439;28;20265;-69
2021/10/11 12:49:30;;;;;;;7.23;1.50;;;;;;;;;;5052967;28;20234;-69
2021/10/11 12:51:59;;;;;;;6.87;1.60;;;;;;;;;;5051234;28;20201;-69
2021/10/11 12:54:31;;;;;;;5.30;1.20;;;;;;;;;;5053544;28;20218;-69
2021/10/11 12:57:26;;;;;;;5.73;1.40;;;;;;;;;;5053180;28;20252;-69
2021/10/11 13:00:16;;;;;;;5.50;1.10;;;;;;;;;;5050921;28;20210;-69
2021/10/11 13:02:44;;;;;;;7.90;1.33;;;;;;;;;;5050562;28;20203;-69
2021/10/11 13:05:24;;;;;;;5.10;1.20;;;;;;;;;;5050064;28;20605;-69
2021/10/11 13:08:00;;;;;;;5.00;1.30;;;;;;;;;;5054237;28;20263;-69
2021/10/11 13:11:19;;;;;;;4.93;1.30;;;;;;;;;;5052809;28;20220;-69
2021/10/11 13:14:38;;;;;;;4.97;1.03;;;;;;;;;;5052683;28;20245;-70
2021/10/11 13:17:57;;;;;;;7.20;1.40;;;;;;;;;;5053412;28;20662;-70
2021/10/11 13:21:16;;;;;;;5.23;1.37;;;;;;;;;;5053852;28;20233;-70
2021/10/11 13:23:45;;;;;;;9.90;1.53;;;;;;;;;;5051093;28;20213;-70
2021/10/11 13:26:19;;;;;;;5.20;1.17;;;;;;;;;;5051661;28;20220;-70
2021/10/11 13:28:52;;;;;;;4.13;1.67;;;;;;;;;;5053741;28;20212;-70
2021/10/11 14:28:02;;;;;;;7.70;1.60;;;;;;;;;;5051800;28;20234;-71
2021/10/11 14:31:26;;;;;;;9.27;1.57;;;;;;;;;;5052884;28;20229;-70
2021/10/11 15:51:45;;;;;;;4.97;1.40;;;;;;;;;;5053540;28;20222;-70
2021/10/11 15:58:27;;;;;;;5.53;1.37;;;;;;;;;;5053536;28;20276;-71
2021/10/11 16:01:41;;;;;;;4.40;1.67;;;;;;;;;;5053995;28;20206;-71
2021/10/11 16:05:03;;;;;;;6.50;1.17;;;;;;;;;;5054016;28;20210;-71
2021/10/11 16:08:22;;;;;;;4.30;1.20;;;;;;;;;;5054880;28;20637;-71
2021/10/11 16:11:41;;;;;;;7.97;1.40;;;;;;;;;;5052543;28;20974;-71
2021/10/11 16:15:00;;;;;;;8.10;1.40;;;;;;;;;;5054399;28;20213;-71
2021/10/11 16:18:19;;;;;;;6.10;1.50;;;;;;;;;;5053587;28;20211;-71
2021/10/11 16:21:40;;;;;;;6.93;1.50;;;;;;;;;;5054735;28;20235;-71
2021/10/11 16:24:59;;;;;;;9.83;1.60;;;;;;;;;;5052283;28;20568;-71
2021/10/11 16:28:18;;;;;;;9.50;1.50;;;;;;;;;;5054181;28;20633;-71
2021/10/11 16:31:37;;;;;;;7.30;1.33;;;;;;;;;;5054648;28;20743;-71
2021/10/11 16:34:57;;;;;;;6.37;1.07;;;;;;;;;;5055442;28;20219;-71
2021/10/11 16:38:17;;;;;;;9.63;1.37;;;;;;;;;;5052464;28;20237;-71
2021/10/11 16:41:36;;;;;;;4.93;1.20;;;;;;;;;;5053358;28;20244;-71
2021/10/11 16:44:29;;;;;;;4.90;0.97;;;;;;;;;;5053383;28;20444;-71
2021/10/11 16:47:48;;;;;;;5.30;1.10;;;;;;;;;;5052784;28;20199;-73
2021/10/11 16:51:07;;;;;;;3.70;0.87;;;;;;;;;;5054277;28;20226;-70
2021/10/11 16:54:29;;;;;;;4.67;1.43;;;;;;;;;;5054435;28;20287;-77
2021/10/11 16:57:42;;;;;;;5.87;1.47;;;;;;;;;;5052703;28;20709;-73
2021/10/11 17:01:02;;;;;;;7.10;1.40;;;;;;;;;;5052947;28;20243;-73
2021/10/11 17:04:21;;;;;;;8.90;1.57;;;;;;;;;;5053608;28;20217;-73
2021/10/11 17:07:40;;;;;;;3.37;1.27;;;;;;;;;;5054957;28;20797;-73
2021/10/11 17:10:50;;;;;;;5.53;1.37;;;;;;;;;;5054195;28;20661;-73
2021/10/11 17:14:04;;;;;;;5.03;1.00;;;;;;;;;;5052903;28;20693;-73
2021/10/11 17:17:23;;;;;;;5.60;1.03;;;;;;;;;;5053666;28;20656;-71
2021/10/11 17:20:42;;;;;;;3.53;1.30;;;;;;;;;;5052744;28;20226;-71
2021/10/11 17:24:02;;;;;;;4.63;1.00;;;;;;;;;;5053374;28;20215;-73
2021/10/11 17:27:24;;;;;;;3.67;1.20;;;;;;;;;;5052222;28;20260;-73
2021/10/11 17:30:42;;;;;;;3.13;1.03;;;;;;;;;;5053323;28;20210;-72
2021/10/11 17:34:02;;;;;;;4.30;1.30;;;;;;;;;;5053141;28;20210;-72
2021/10/11 17:37:10;;;;;;;4.07;1.13;;;;;;;;;;5052503;28;20225;-72
2021/10/11 17:40:29;;;;;;;5.63;1.57;;;;;;;;;;5053071;28;20214;-72
2021/10/11 17:43:01;;;;;;;6.53;1.27;;;;;;;;;;5053090;28;20276;-72
2021/10/11 17:46:20;;;;;;;4.00;0.83;;;;;;;;;;5052687;28;20247;-72
2021/10/11 17:49:42;;;;;;;3.77;1.30;;;;;;;;;;5054839;28;20216;-72
2021/10/11 17:52:15;;;;;;;5.60;1.20;;;;;;;;;;5052625;28;20230;-72
2021/10/11 17:54:49;;;;;;;6.57;1.30;;;;;;;;;;5053552;28;20275;-72
2021/10/11 17:57:37;;;;;;;3.53;0.70;;;;;;;;;;5051916;28;20272;-73
2021/10/11 18:00:33;;;;;;;5.83;0.70;;;;;;;;;;5053459;28;20263;-72
2021/10/11 18:03:52;;;;;;;4.47;1.13;;;;;;;;;;5054026;28;20719;-72
2021/10/11 18:06:35;;;;;;;4.30;0.90;;;;;;;;;;5051752;28;20237;-72
2021/10/11 18:09:58;;;;;;;3.23;0.80;;;;;;;;;;5053878;28;20210;-72
2021/10/11 18:13:17;;;;;;;1.80;0.60;;;;;;;;;;5052221;28;20255;-72
2021/10/11 18:16:14;;;;;;;7.27;0.80;;;;;;;;;;5052507;28;20281;-72
2021/10/11 18:19:34;;;;;;;3.63;1.30;;;;;;;;;;5051500;28;20256;-72
2021/10/11 18:22:52;;;;;;;4.77;1.00;;;;;;;;;;5053655;28;20285;-72
2021/10/11 18:26:12;;;;;;;4.10;0.90;;;;;;;;;;5053200;28;20215;-72
2021/10/11 18:29:31;;;;;;;5.63;0.97;;;;;;;;;;5054575;28;20315;-72
2021/10/11 18:32:51;;;;;;;2.70;0.70;;;;;;;;;;5052753;28;20233;-72
2021/10/11 18:36:10;;;;;;;2.80;0.70;;;;;;;;;;5051394;28;20225;-72
2021/10/11 18:39:29;;;;;;;4.37;0.90;;;;;;;;;;5052811;28;21286;-72
2021/10/11 18:42:00;;;;;;;3.73;0.53;;;;;;;;;;5055330;28;20305;-72
2021/10/11 18:45:00;;;;;;;2.80;0.77;;;;;;;;;;5056698;28;20210;-72
2021/10/11 18:48:19;;;;;;;2.63;0.77;;;;;;;;;;5055682;28;20613;-72
2021/10/11 18:51:38;;;;;;;23.80;16.73;;;;;;;;;;5056961;28;20279;-72
2021/10/11 18:54:57;;;;;;;7.83;5.00;;;;;;;;;;5058071;28;20288;-72
2021/10/11 18:58:17;;;;;;;3.80;1.10;;;;;;;;;;5056403;28;20513;-72
2021/10/11 19:01:36;;;;;;;1.57;0.60;;;;;;;;;;5057455;28;20214;-72
2021/10/11 19:04:57;;;;;;;2.60;1.37;;;;;;;;;;5055334;28;20751;-72
2021/10/11 19:08:16;;;;;;;4.17;1.50;;;;;;;;;;5054556;28;20217;-72
2021/10/11 19:11:37;;;;;;;4.57;1.47;;;;;;;;;;5057039;28;20646;-72
2021/10/11 19:14:56;;;;;;;4.07;1.40;;;;;;;;;;5056661;28;20249;-72
2021/10/11 19:18:15;;;;;;;3.30;1.20;;;;;;;;;;5056346;28;20209;-73
2021/10/11 19:21:37;;;;;;;4.73;1.40;;;;;;;;;;5056707;28;20256;-72
2021/10/11 19:24:57;;;;;;;4.90;1.00;;;;;;;;;;5056630;28;20648;-72
2021/10/11 19:28:16;;;;;;;1.60;0.80;;;;;;;;;;5054977;28;20264;-72
2021/10/11 19:31:36;;;;;;;3.97;1.00;;;;;;;;;;5053880;28;20288;-73
2021/10/11 19:34:55;;;;;;;5.87;1.53;;;;;;;;;;5056432;28;20234;-73
2021/10/11 19:38:16;;;;;;;4.43;1.40;;;;;;;;;;5056485;28;20266;-73
2021/10/11 19:41:35;;;;;;;4.60;1.00;;;;;;;;;;5055228;28;20354;-73
2021/10/11 19:44:54;;;;;;;7.10;1.40;;;;;;;;;;5056140;28;20271;-73
2021/10/11 19:48:13;;;;;;;6.90;1.10;;;;;;;;;;5056499;28;20221;-74
2021/10/11 19:51:12;;;;;;;6.53;1.53;;;;;;;;;;5056436;28;20225;-74
2021/10/11 19:54:33;;;;;;;6.50;1.53;;;;;;;;;;5055183;28;20276;-74
2021/10/11 19:57:52;;;;;;;5.87;1.20;;;;;;;;;;5055408;28;20224;-74
2021/10/11 20:01:11;;;;;;;4.07;1.23;;;;;;;;;;5052828;28;20648;-74
2021/10/11 20:04:30;;;;;;;4.87;0.97;;;;;;;;;;5054909;28;20205;-74
2021/10/11 20:07:49;;;;;;;5.77;1.10;;;;;;;;;;5053734;28;20240;-74
2021/10/11 20:11:11;;;;;;;3.03;0.80;;;;;;;;;;5055756;28;20592;-74
2021/10/11 20:14:30;;;;;;;4.23;1.10;;;;;;;;;;5057867;28;20241;-74
2021/10/11 20:17:49;;;;;;;3.87;1.10;;;;;;;;;;5057217;28;20733;-74
2021/10/11 20:21:08;;;;;;;5.77;1.80;;;;;;;;;;5055983;28;20701;-74
2021/10/11 20:24:27;;;;;;;8.47;1.40;;;;;;;;;;5054943;28;20252;-75
2021/10/11 20:27:47;;;;;;;3.70;1.00;;;;;;;;;;5056108;28;20268;-74
2021/10/11 20:31:06;;;;;;;7.90;1.97;;;;;;;;;;5057179;28;20255;-75
2021/10/11 20:34:25;;;;;;;3.73;2.10;;;;;;;;;;5053826;28;20229;-74
2021/10/11 20:37:44;;;;;;;3.43;1.37;;;;;;;;;;5056015;28;20573;-74
2021/10/11 20:41:04;;;;;;;5.03;1.20;;;;;;;;;;5055275;28;20217;-74
2021/10/11 20:44:24;;;;;;;7.33;1.27;;;;;;;;;;5055979;28;20629;-74
2021/10/11 20:47:43;;;;;;;8.97;1.40;;;;;;;;;;5054690;28;20267;-74
2021/10/11 20:51:02;;;;;;;6.07;1.47;;;;;;;;;;5056860;28;20229;-74
2021/10/11 20:54:21;;;;;;;5.70;1.50;;;;;;;;;;5055892;28;20707;-74
2021/10/11 20:57:40;;;;;;;7.27;1.60;;;;;;;;;;5054513;28;20294;-74
2021/10/11 21:00:45;;;;;;;6.53;1.47;;;;;;;;;;5056773;28;20263;-74
2021/10/11 21:03:17;;;;;;;5.47;0.97;;;;;;;;;;5056568;28;20216;-74
2021/10/11 21:06:36;;;;;;;5.47;1.23;;;;;;;;;;5054128;28;20287;-74
2021/10/11 21:09:55;;;;;;;6.50;1.80;;;;;;;;;;5055785;28;20214;-74
2021/10/11 21:13:14;;;;;;;9.73;2.00;;;;;;;;;;5053992;28;20290;-74
2021/10/11 21:16:34;;;;;;;5.73;1.30;;;;;;;;;;5056239;28;20216;-74
2021/10/11 21:19:54;;;;;;;4.63;1.50;;;;;;;;;;5054325;28;20743;-75
2021/10/11 21:23:13;;;;;;;11.20;2.20;;;;;;;;;;5056607;28;20212;-75
2021/10/11 21:26:32;;;;;;;6.03;1.80;;;;;;;;;;5055310;28;20258;-75
2021/10/11 21:29:51;;;;;;;5.70;1.50;;;;;;;;;;5055150;28;20978;-74
2021/10/11 21:33:12;;;;;;;7.03;1.47;;;;;;;;;;5052020;28;20212;-74